sensor_id;sensor_type;location;lat;lon;timestamp;P1;durP1;ratioP1;P2;durP2;ratioP2
7495;SDS011;3789;47.064;15.482;2023-03-29T00:02:04;5.60;;;5.03;;
7495;SDS011;3789;47.064;15.482;2023-03-29T00:04:35;5.03;;;4.63;;
7495;SDS011;3789;47.064;15.482;2023-03-29T00:07:03;6.90;;;5.50;;
7495;SDS011;3789;47.064;15.482;2023-03-29T00:09:33;5.33;;;4.63;;
7495;SDS011;3789;47.064;15.482;2023-03-29T00:12:04;5.37;;;4.83;;
7495;SDS011;3789;47.064;15.482;2023-03-29T00:14:36;6.13;;;4.43;;
7495;SDS011;3789;47.064;15.482;2023-03-29T00:17:05;4.20;;;3.90;;
7495;SDS011;3789;47.064;15.482;2023-03-29T00:19:35;5.23;;;4.73;;
7495;SDS011;3789;47.064;15.482;2023-03-29T00:22:06;4.50;;;4.13;;
7495;SDS011;3789;47.064;15.482;2023-03-29T00:24:34;5.00;;;4.60;;
7495;SDS011;3789;47.064;15.482;2023-03-29T00:27:06;4.63;;;4.30;;
7495;SDS011;3789;47.064;15.482;2023-03-29T00:29:37;4.50;;;4.10;;
7495;SDS011;3789;47.064;15.482;2023-03-29T00:32:12;4.77;;;4.27;;
7495;SDS011;3789;47.064;15.482;2023-03-29T00:34:40;5.13;;;4.00;;
7495;SDS011;3789;47.064;15.482;2023-03-29T00:37:13;4.57;;;4.20;;
7495;SDS011;3789;47.064;15.482;2023-03-29T00:39:42;5.23;;;4.90;;
7495;SDS011;3789;47.064;15.482;2023-03-29T00:42:36;4.40;;;4.10;;
7495;SDS011;3789;47.064;15.482;2023-03-29T00:45:27;4.63;;;4.23;;
7495;SDS011;3789;47.064;15.482;2023-03-29T00:48:01;5.33;;;4.20;;
7495;SDS011;3789;47.064;15.482;2023-03-29T00:51:06;4.70;;;4.30;;
7495;SDS011;3789;47.064;15.482;2023-03-29T00:53:43;4.63;;;4.33;;
7495;SDS011;3789;47.064;15.482;2023-03-29T00:59:19;4.30;;;4.00;;
7495;SDS011;3789;47.064;15.482;2023-03-29T01:01:58;4.80;;;4.40;;
7495;SDS011;3789;47.064;15.482;2023-03-29T01:04:40;4.50;;;4.10;;
7495;SDS011;3789;47.064;15.482;2023-03-29T01:07:42;5.13;;;4.63;;
7495;SDS011;3789;47.064;15.482;2023-03-29T01:10:43;4.70;;;4.27;;
7495;SDS011;3789;47.064;15.482;2023-03-29T01:13:18;4.40;;;4.10;;
7495;SDS011;3789;47.064;15.482;2023-03-29T01:15:57;4.70;;;4.30;;
7495;SDS011;3789;47.064;15.482;2023-03-29T01:18:31;3.93;;;3.60;;
7495;SDS011;3789;47.064;15.482;2023-03-29T01:30:27;4.37;;;3.43;;
7495;SDS011;3789;47.064;15.482;2023-03-29T01:33:19;6.73;;;3.60;;
7495;SDS011;3789;47.064;15.482;2023-03-29T01:39:03;4.33;;;3.17;;
7495;SDS011;3789;47.064;15.482;2023-03-29T01:45:48;3.27;;;2.97;;
7495;SDS011;3789;47.064;15.482;2023-03-29T01:47:54;3.20;;;2.90;;
7495;SDS011;3789;47.064;15.482;2023-03-29T01:56:15;7.90;;;3.20;;
7495;SDS011;3789;47.064;15.482;2023-03-29T01:58:52;2.67;;;2.47;;
7495;SDS011;3789;47.064;15.482;2023-03-29T02:01:26;3.70;;;2.97;;
7495;SDS011;3789;47.064;15.482;2023-03-29T02:04:00;2.60;;;2.40;;
7495;SDS011;3789;47.064;15.482;2023-03-29T02:06:34;3.10;;;2.80;;
7495;SDS011;3789;47.064;15.482;2023-03-29T02:09:07;3.43;;;2.83;;
7495;SDS011;3789;47.064;15.482;2023-03-29T02:11:37;3.10;;;2.80;;
7495;SDS011;3789;47.064;15.482;2023-03-29T02:14:10;3.93;;;2.63;;
7495;SDS011;3789;47.064;15.482;2023-03-29T02:16:40;2.97;;;2.77;;
7495;SDS011;3789;47.064;15.482;2023-03-29T02:19:15;2.90;;;2.70;;
7495;SDS011;3789;47.064;15.482;2023-03-29T02:24:51;4.63;;;2.60;;
7495;SDS011;3789;47.064;15.482;2023-03-29T02:27:26;5.00;;;2.97;;
7495;SDS011;3789;47.064;15.482;2023-03-29T02:29:59;2.93;;;2.73;;
7495;SDS011;3789;47.064;15.482;2023-03-29T02:32:33;3.00;;;2.50;;
7495;SDS011;3789;47.064;15.482;2023-03-29T02:35:34;6.77;;;2.90;;
7495;SDS011;3789;47.064;15.482;2023-03-29T02:38:14;2.90;;;2.60;;
7495;SDS011;3789;47.064;15.482;2023-03-29T02:40:43;2.50;;;2.30;;
7495;SDS011;3789;47.064;15.482;2023-03-29T02:43:13;2.90;;;2.60;;
7495;SDS011;3789;47.064;15.482;2023-03-29T02:45:54;3.33;;;2.60;;
7495;SDS011;3789;47.064;15.482;2023-03-29T02:48:29;3.27;;;2.60;;
7495;SDS011;3789;47.064;15.482;2023-03-29T02:51:06;4.20;;;3.17;;
7495;SDS011;3789;47.064;15.482;2023-03-29T02:53:52;2.83;;;2.63;;
7495;SDS011;3789;47.064;15.482;2023-03-29T02:56:41;3.10;;;2.70;;
7495;SDS011;3789;47.064;15.482;2023-03-29T02:59:18;3.67;;;2.80;;
7495;SDS011;3789;47.064;15.482;2023-03-29T03:01:51;2.60;;;2.40;;
7495;SDS011;3789;47.064;15.482;2023-03-29T03:04:20;3.77;;;2.70;;
7495;SDS011;3789;47.064;15.482;2023-03-29T03:06:49;2.47;;;2.27;;
7495;SDS011;3789;47.064;15.482;2023-03-29T03:09:17;2.73;;;2.47;;
7495;SDS011;3789;47.064;15.482;2023-03-29T03:11:46;4.03;;;2.90;;
7495;SDS011;3789;47.064;15.482;2023-03-29T03:14:13;3.27;;;2.67;;
7495;SDS011;3789;47.064;15.482;2023-03-29T03:16:44;3.10;;;2.70;;
7495;SDS011;3789;47.064;15.482;2023-03-29T03:19:20;3.07;;;2.70;;
7495;SDS011;3789;47.064;15.482;2023-03-29T03:21:55;3.83;;;2.80;;
7495;SDS011;3789;47.064;15.482;2023-03-29T03:24:26;3.67;;;3.00;;
7495;SDS011;3789;47.064;15.482;2023-03-29T03:26:55;4.20;;;2.67;;
7495;SDS011;3789;47.064;15.482;2023-03-29T03:29:25;3.60;;;2.43;;
7495;SDS011;3789;47.064;15.482;2023-03-29T03:31:55;3.57;;;2.77;;
7495;SDS011;3789;47.064;15.482;2023-03-29T03:34:24;4.63;;;2.70;;
7495;SDS011;3789;47.064;15.482;2023-03-29T03:36:52;4.27;;;2.93;;
7495;SDS011;3789;47.064;15.482;2023-03-29T03:39:30;4.50;;;3.63;;
7495;SDS011;3789;47.064;15.482;2023-03-29T03:42:00;5.80;;;4.70;;
7495;SDS011;3789;47.064;15.482;2023-03-29T03:44:35;5.77;;;4.60;;
7495;SDS011;3789;47.064;15.482;2023-03-29T03:47:04;6.13;;;3.73;;
7495;SDS011;3789;47.064;15.482;2023-03-29T03:49:34;4.40;;;3.70;;
7495;SDS011;3789;47.064;15.482;2023-03-29T03:52:04;3.30;;;2.97;;
7495;SDS011;3789;47.064;15.482;2023-03-29T03:54:39;2.97;;;2.60;;
7495;SDS011;3789;47.064;15.482;2023-03-29T03:57:08;4.13;;;2.93;;
7495;SDS011;3789;47.064;15.482;2023-03-29T03:59:36;3.03;;;2.60;;
7495;SDS011;3789;47.064;15.482;2023-03-29T04:02:05;3.47;;;3.17;;
7495;SDS011;3789;47.064;15.482;2023-03-29T04:04:42;4.00;;;3.27;;
7495;SDS011;3789;47.064;15.482;2023-03-29T04:07:11;4.90;;;3.30;;
7495;SDS011;3789;47.064;15.482;2023-03-29T04:09:47;3.43;;;3.03;;
7495;SDS011;3789;47.064;15.482;2023-03-29T04:12:26;3.83;;;2.93;;
7495;SDS011;3789;47.064;15.482;2023-03-29T04:14:54;4.43;;;2.83;;
7495;SDS011;3789;47.064;15.482;2023-03-29T04:17:23;3.00;;;2.70;;
7495;SDS011;3789;47.064;15.482;2023-03-29T04:19:55;3.53;;;2.50;;
7495;SDS011;3789;47.064;15.482;2023-03-29T04:22:25;3.83;;;2.63;;
7495;SDS011;3789;47.064;15.482;2023-03-29T04:24:55;2.90;;;2.30;;
7495;SDS011;3789;47.064;15.482;2023-03-29T04:27:24;3.27;;;2.83;;
7495;SDS011;3789;47.064;15.482;2023-03-29T04:29:52;2.70;;;2.50;;
7495;SDS011;3789;47.064;15.482;2023-03-29T04:32:22;3.07;;;2.50;;
7495;SDS011;3789;47.064;15.482;2023-03-29T04:35:01;4.20;;;2.37;;
7495;SDS011;3789;47.064;15.482;2023-03-29T04:37:32;3.27;;;2.73;;
7495;SDS011;3789;47.064;15.482;2023-03-29T04:40:03;3.80;;;2.77;;
7495;SDS011;3789;47.064;15.482;2023-03-29T04:42:35;3.23;;;2.73;;
7495;SDS011;3789;47.064;15.482;2023-03-29T04:45:04;2.63;;;2.43;;
7495;SDS011;3789;47.064;15.482;2023-03-29T04:47:34;3.43;;;3.13;;
7495;SDS011;3789;47.064;15.482;2023-03-29T04:50:06;4.97;;;3.37;;
7495;SDS011;3789;47.064;15.482;2023-03-29T04:52:40;3.57;;;3.27;;
7495;SDS011;3789;47.064;15.482;2023-03-29T04:55:12;6.17;;;3.57;;
7495;SDS011;3789;47.064;15.482;2023-03-29T04:57:40;7.00;;;3.57;;
7495;SDS011;3789;47.064;15.482;2023-03-29T05:00:16;4.57;;;3.20;;
7495;SDS011;3789;47.064;15.482;2023-03-29T05:02:50;3.80;;;3.23;;
7495;SDS011;3789;47.064;15.482;2023-03-29T05:05:21;3.33;;;3.03;;
7495;SDS011;3789;47.064;15.482;2023-03-29T05:07:51;3.33;;;3.03;;
7495;SDS011;3789;47.064;15.482;2023-03-29T05:10:20;4.47;;;3.30;;
7495;SDS011;3789;47.064;15.482;2023-03-29T05:12:48;3.53;;;3.10;;
7495;SDS011;3789;47.064;15.482;2023-03-29T05:15:24;3.67;;;3.30;;
7495;SDS011;3789;47.064;15.482;2023-03-29T05:17:53;3.60;;;2.90;;
7495;SDS011;3789;47.064;15.482;2023-03-29T05:20:22;3.30;;;3.00;;
7495;SDS011;3789;47.064;15.482;2023-03-29T05:22:51;3.83;;;3.43;;
7495;SDS011;3789;47.064;15.482;2023-03-29T05:25:20;4.60;;;3.10;;
7495;SDS011;3789;47.064;15.482;2023-03-29T05:27:51;3.50;;;3.00;;
7495;SDS011;3789;47.064;15.482;2023-03-29T05:30:20;3.43;;;3.10;;
7495;SDS011;3789;47.064;15.482;2023-03-29T05:32:51;3.40;;;2.97;;
7495;SDS011;3789;47.064;15.482;2023-03-29T05:35:20;4.60;;;3.43;;
7495;SDS011;3789;47.064;15.482;2023-03-29T05:37:52;5.17;;;2.67;;
7495;SDS011;3789;47.064;15.482;2023-03-29T05:40:20;3.73;;;3.10;;
7495;SDS011;3789;47.064;15.482;2023-03-29T05:42:49;3.10;;;2.80;;
7495;SDS011;3789;47.064;15.482;2023-03-29T05:45:17;3.57;;;3.17;;
7495;SDS011;3789;47.064;15.482;2023-03-29T05:47:54;5.00;;;3.87;;
7495;SDS011;3789;47.064;15.482;2023-03-29T05:50:25;5.13;;;3.50;;
7495;SDS011;3789;47.064;15.482;2023-03-29T05:52:54;5.53;;;3.63;;
7495;SDS011;3789;47.064;15.482;2023-03-29T05:55:23;5.67;;;3.50;;
7495;SDS011;3789;47.064;15.482;2023-03-29T05:57:54;6.33;;;3.43;;
7495;SDS011;3789;47.064;15.482;2023-03-29T06:00:24;8.90;;;3.17;;
7495;SDS011;3789;47.064;15.482;2023-03-29T06:02:54;5.33;;;3.13;;
7495;SDS011;3789;47.064;15.482;2023-03-29T06:05:35;6.20;;;3.40;;
7495;SDS011;3789;47.064;15.482;2023-03-29T06:08:06;5.17;;;3.30;;
7495;SDS011;3789;47.064;15.482;2023-03-29T06:10:35;4.23;;;3.20;;
7495;SDS011;3789;47.064;15.482;2023-03-29T06:13:05;3.90;;;3.27;;
7495;SDS011;3789;47.064;15.482;2023-03-29T06:15:35;4.87;;;3.03;;
7495;SDS011;3789;47.064;15.482;2023-03-29T06:18:03;3.63;;;3.00;;
7495;SDS011;3789;47.064;15.482;2023-03-29T06:20:33;5.03;;;3.53;;
7495;SDS011;3789;47.064;15.482;2023-03-29T06:23:02;3.90;;;3.50;;
7495;SDS011;3789;47.064;15.482;2023-03-29T06:25:29;5.33;;;3.40;;
7495;SDS011;3789;47.064;15.482;2023-03-29T06:28:01;6.07;;;4.50;;
7495;SDS011;3789;47.064;15.482;2023-03-29T06:30:30;8.27;;;5.60;;
7495;SDS011;3789;47.064;15.482;2023-03-29T06:32:59;8.47;;;5.47;;
7495;SDS011;3789;47.064;15.482;2023-03-29T06:35:29;5.90;;;5.23;;
7495;SDS011;3789;47.064;15.482;2023-03-29T06:37:56;6.73;;;4.77;;
7495;SDS011;3789;47.064;15.482;2023-03-29T06:40:29;5.87;;;4.20;;
7495;SDS011;3789;47.064;15.482;2023-03-29T06:42:58;6.73;;;3.50;;
7495;SDS011;3789;47.064;15.482;2023-03-29T06:45:28;8.67;;;3.70;;
7495;SDS011;3789;47.064;15.482;2023-03-29T06:48:01;4.10;;;3.17;;
7495;SDS011;3789;47.064;15.482;2023-03-29T06:50:30;3.80;;;2.97;;
7495;SDS011;3789;47.064;15.482;2023-03-29T06:53:02;5.60;;;2.93;;
7495;SDS011;3789;47.064;15.482;2023-03-29T06:55:31;3.83;;;3.30;;
7495;SDS011;3789;47.064;15.482;2023-03-29T06:58:00;4.57;;;3.30;;
7495;SDS011;3789;47.064;15.482;2023-03-29T07:00:32;4.00;;;3.50;;
7495;SDS011;3789;47.064;15.482;2023-03-29T07:03:04;4.43;;;3.70;;
7495;SDS011;3789;47.064;15.482;2023-03-29T07:05:35;3.90;;;3.10;;
7495;SDS011;3789;47.064;15.482;2023-03-29T07:08:07;4.33;;;2.90;;
7495;SDS011;3789;47.064;15.482;2023-03-29T07:10:44;4.50;;;3.23;;
7495;SDS011;3789;47.064;15.482;2023-03-29T07:13:19;3.43;;;3.13;;
7495;SDS011;3789;47.064;15.482;2023-03-29T07:15:48;5.13;;;3.17;;
7495;SDS011;3789;47.064;15.482;2023-03-29T07:18:16;5.13;;;3.27;;
7495;SDS011;3789;47.064;15.482;2023-03-29T07:20:49;3.50;;;3.20;;
7495;SDS011;3789;47.064;15.482;2023-03-29T07:23:27;4.47;;;3.70;;
7495;SDS011;3789;47.064;15.482;2023-03-29T07:25:55;3.73;;;3.23;;
7495;SDS011;3789;47.064;15.482;2023-03-29T07:28:26;3.47;;;3.10;;
7495;SDS011;3789;47.064;15.482;2023-03-29T07:31:05;4.60;;;3.60;;
7495;SDS011;3789;47.064;15.482;2023-03-29T07:33:37;4.93;;;3.67;;
7495;SDS011;3789;47.064;15.482;2023-03-29T07:36:06;3.83;;;3.37;;
7495;SDS011;3789;47.064;15.482;2023-03-29T07:38:35;3.97;;;3.50;;
7495;SDS011;3789;47.064;15.482;2023-03-29T07:41:09;4.10;;;3.77;;
7495;SDS011;3789;47.064;15.482;2023-03-29T07:43:41;4.07;;;3.67;;
7495;SDS011;3789;47.064;15.482;2023-03-29T07:46:09;6.57;;;3.97;;
7495;SDS011;3789;47.064;15.482;2023-03-29T07:48:38;4.40;;;3.40;;
7495;SDS011;3789;47.064;15.482;2023-03-29T07:51:08;3.30;;;3.00;;
7495;SDS011;3789;47.064;15.482;2023-03-29T07:53:37;3.90;;;3.60;;
7495;SDS011;3789;47.064;15.482;2023-03-29T07:56:07;3.40;;;3.10;;
7495;SDS011;3789;47.064;15.482;2023-03-29T07:58:38;5.47;;;3.40;;
7495;SDS011;3789;47.064;15.482;2023-03-29T08:01:05;3.30;;;3.00;;
7495;SDS011;3789;47.064;15.482;2023-03-29T08:03:45;4.10;;;3.67;;
7495;SDS011;3789;47.064;15.482;2023-03-29T08:06:13;3.57;;;3.27;;
7495;SDS011;3789;47.064;15.482;2023-03-29T08:08:45;3.77;;;3.37;;
7495;SDS011;3789;47.064;15.482;2023-03-29T08:11:13;7.07;;;4.17;;
7495;SDS011;3789;47.064;15.482;2023-03-29T08:13:42;3.80;;;3.30;;
7495;SDS011;3789;47.064;15.482;2023-03-29T08:16:12;6.77;;;3.53;;
7495;SDS011;3789;47.064;15.482;2023-03-29T08:18:41;5.57;;;3.40;;
7495;SDS011;3789;47.064;15.482;2023-03-29T08:21:08;4.60;;;4.17;;
7495;SDS011;3789;47.064;15.482;2023-03-29T08:23:42;3.27;;;2.97;;
7495;SDS011;3789;47.064;15.482;2023-03-29T08:26:10;5.20;;;3.10;;
7495;SDS011;3789;47.064;15.482;2023-03-29T08:28:49;5.30;;;2.90;;
7495;SDS011;3789;47.064;15.482;2023-03-29T08:31:26;7.07;;;3.40;;
7495;SDS011;3789;47.064;15.482;2023-03-29T08:34:05;4.30;;;3.33;;
7495;SDS011;3789;47.064;15.482;2023-03-29T08:36:34;4.87;;;3.07;;
7495;SDS011;3789;47.064;15.482;2023-03-29T08:39:04;4.10;;;2.97;;
7495;SDS011;3789;47.064;15.482;2023-03-29T08:44:42;4.37;;;2.90;;
7495;SDS011;3789;47.064;15.482;2023-03-29T08:50:49;3.70;;;3.10;;
7495;SDS011;3789;47.064;15.482;2023-03-29T08:53:34;4.17;;;2.80;;
7495;SDS011;3789;47.064;15.482;2023-03-29T08:56:21;4.73;;;2.80;;
7495;SDS011;3789;47.064;15.482;2023-03-29T08:58:53;4.07;;;2.90;;
7495;SDS011;3789;47.064;15.482;2023-03-29T09:01:23;5.07;;;3.73;;
7495;SDS011;3789;47.064;15.482;2023-03-29T09:06:38;3.60;;;2.83;;
7495;SDS011;3789;47.064;15.482;2023-03-29T09:09:40;6.70;;;2.80;;
7495;SDS011;3789;47.064;15.482;2023-03-29T09:21:05;4.20;;;3.23;;
7495;SDS011;3789;47.064;15.482;2023-03-29T09:26:53;5.57;;;4.17;;
7495;SDS011;3789;47.064;15.482;2023-03-29T09:32:53;5.00;;;3.87;;
7495;SDS011;3789;47.064;15.482;2023-03-29T09:35:32;8.60;;;5.27;;
7495;SDS011;3789;47.064;15.482;2023-03-29T09:38:24;6.90;;;4.97;;
7495;SDS011;3789;47.064;15.482;2023-03-29T09:40:56;9.17;;;5.30;;
7495;SDS011;3789;47.064;15.482;2023-03-29T09:43:39;6.63;;;5.03;;
7495;SDS011;3789;47.064;15.482;2023-03-29T09:46:16;8.37;;;4.83;;
7495;SDS011;3789;47.064;15.482;2023-03-29T09:48:59;10.97;;;5.63;;
7495;SDS011;3789;47.064;15.482;2023-03-29T09:51:32;8.80;;;5.23;;
7495;SDS011;3789;47.064;15.482;2023-03-29T09:54:09;9.43;;;4.90;;
7495;SDS011;3789;47.064;15.482;2023-03-29T09:56:39;7.67;;;4.77;;
7495;SDS011;3789;47.064;15.482;2023-03-29T09:59:09;8.80;;;4.97;;
7495;SDS011;3789;47.064;15.482;2023-03-29T10:01:40;10.33;;;4.43;;
7495;SDS011;3789;47.064;15.482;2023-03-29T10:04:16;8.93;;;4.70;;
7495;SDS011;3789;47.064;15.482;2023-03-29T10:06:46;7.87;;;4.50;;
7495;SDS011;3789;47.064;15.482;2023-03-29T10:09:34;5.17;;;3.83;;
7495;SDS011;3789;47.064;15.482;2023-03-29T10:12:06;7.37;;;4.57;;
7495;SDS011;3789;47.064;15.482;2023-03-29T10:14:49;6.53;;;4.67;;
7495;SDS011;3789;47.064;15.482;2023-03-29T10:17:24;7.20;;;4.90;;
7495;SDS011;3789;47.064;15.482;2023-03-29T10:20:00;5.47;;;4.43;;
7495;SDS011;3789;47.064;15.482;2023-03-29T10:22:36;7.83;;;4.10;;
7495;SDS011;3789;47.064;15.482;2023-03-29T10:25:13;6.70;;;4.10;;
7495;SDS011;3789;47.064;15.482;2023-03-29T10:27:44;7.07;;;4.37;;
7495;SDS011;3789;47.064;15.482;2023-03-29T10:30:21;6.40;;;4.03;;
7495;SDS011;3789;47.064;15.482;2023-03-29T10:32:54;5.50;;;3.83;;
7495;SDS011;3789;47.064;15.482;2023-03-29T10:35:32;8.57;;;4.57;;
7495;SDS011;3789;47.064;15.482;2023-03-29T10:38:17;7.70;;;4.07;;
7495;SDS011;3789;47.064;15.482;2023-03-29T10:41:09;9.57;;;4.37;;
7495;SDS011;3789;47.064;15.482;2023-03-29T10:43:45;5.00;;;3.60;;
7495;SDS011;3789;47.064;15.482;2023-03-29T10:46:28;3.80;;;3.30;;
7495;SDS011;3789;47.064;15.482;2023-03-29T10:49:17;6.03;;;3.20;;
7495;SDS011;3789;47.064;15.482;2023-03-29T10:51:48;4.13;;;3.30;;
7495;SDS011;3789;47.064;15.482;2023-03-29T10:54:21;8.73;;;3.27;;
7495;SDS011;3789;47.064;15.482;2023-03-29T10:57:02;5.93;;;3.00;;
7495;SDS011;3789;47.064;15.482;2023-03-29T10:59:45;5.40;;;3.40;;
7495;SDS011;3789;47.064;15.482;2023-03-29T11:02:25;5.70;;;2.77;;
7495;SDS011;3789;47.064;15.482;2023-03-29T11:29:05;3.13;;;2.83;;
7495;SDS011;3789;47.064;15.482;2023-03-29T11:37:54;3.27;;;2.70;;
7495;SDS011;3789;47.064;15.482;2023-03-29T11:40:49;6.40;;;2.93;;
7495;SDS011;3789;47.064;15.482;2023-03-29T11:43:42;4.80;;;3.40;;
7495;SDS011;3789;47.064;15.482;2023-03-29T11:47:00;2.80;;;2.50;;
7495;SDS011;3789;47.064;15.482;2023-03-29T11:49:54;5.27;;;2.90;;
7495;SDS011;3789;47.064;15.482;2023-03-29T11:52:32;3.77;;;3.03;;
7495;SDS011;3789;47.064;15.482;2023-03-29T11:55:21;4.50;;;3.30;;
7495;SDS011;3789;47.064;15.482;2023-03-29T11:57:59;4.97;;;3.20;;
7495;SDS011;3789;47.064;15.482;2023-03-29T12:00:57;4.37;;;3.23;;
7495;SDS011;3789;47.064;15.482;2023-03-29T12:03:52;4.30;;;3.20;;
7495;SDS011;3789;47.064;15.482;2023-03-29T12:06:37;4.53;;;2.97;;
7495;SDS011;3789;47.064;15.482;2023-03-29T12:09:32;4.97;;;3.10;;
7495;SDS011;3789;47.064;15.482;2023-03-29T12:15:40;6.23;;;3.37;;
7495;SDS011;3789;47.064;15.482;2023-03-29T12:21:22;3.73;;;2.80;;
7495;SDS011;3789;47.064;15.482;2023-03-29T12:23:55;3.57;;;2.93;;
7495;SDS011;3789;47.064;15.482;2023-03-29T12:32:43;4.27;;;3.10;;
7495;SDS011;3789;47.064;15.482;2023-03-29T12:38:32;5.30;;;2.63;;
7495;SDS011;3789;47.064;15.482;2023-03-29T12:41:09;3.93;;;2.70;;
7495;SDS011;3789;47.064;15.482;2023-03-29T12:43:46;6.07;;;2.67;;
7495;SDS011;3789;47.064;15.482;2023-03-29T12:46:18;3.50;;;2.70;;
7495;SDS011;3789;47.064;15.482;2023-03-29T12:52:12;6.03;;;3.53;;
7495;SDS011;3789;47.064;15.482;2023-03-29T12:55:21;5.47;;;3.23;;
7495;SDS011;3789;47.064;15.482;2023-03-29T12:58:05;4.70;;;3.50;;
7495;SDS011;3789;47.064;15.482;2023-03-29T13:01:31;3.73;;;3.10;;
7495;SDS011;3789;47.064;15.482;2023-03-29T13:03:56;9.40;;;3.53;;
7495;SDS011;3789;47.064;15.482;2023-03-29T13:09:31;4.67;;;3.23;;
7495;SDS011;3789;47.064;15.482;2023-03-29T13:14:49;4.87;;;2.90;;
7495;SDS011;3789;47.064;15.482;2023-03-29T13:20:34;5.73;;;3.23;;
7495;SDS011;3789;47.064;15.482;2023-03-29T13:40:43;5.20;;;3.17;;
7495;SDS011;3789;47.064;15.482;2023-03-29T13:43:20;6.13;;;3.70;;
7495;SDS011;3789;47.064;15.482;2023-03-29T13:51:27;3.80;;;3.50;;
7495;SDS011;3789;47.064;15.482;2023-03-29T13:57:04;4.07;;;3.50;;
7495;SDS011;3789;47.064;15.482;2023-03-29T14:02:47;7.53;;;3.70;;
7495;SDS011;3789;47.064;15.482;2023-03-29T14:05:30;5.17;;;4.63;;
7495;SDS011;3789;47.064;15.482;2023-03-29T14:10:45;5.80;;;3.50;;
7495;SDS011;3789;47.064;15.482;2023-03-29T14:13:14;5.43;;;3.57;;
7495;SDS011;3789;47.064;15.482;2023-03-29T14:16:01;7.73;;;4.53;;
7495;SDS011;3789;47.064;15.482;2023-03-29T14:18:40;5.57;;;3.93;;
7495;SDS011;3789;47.064;15.482;2023-03-29T14:21:20;3.73;;;2.90;;
7495;SDS011;3789;47.064;15.482;2023-03-29T14:23:56;4.30;;;3.10;;
7495;SDS011;3789;47.064;15.482;2023-03-29T14:26:31;3.90;;;3.17;;
7495;SDS011;3789;47.064;15.482;2023-03-29T14:29:03;5.57;;;3.80;;
7495;SDS011;3789;47.064;15.482;2023-03-29T14:31:34;4.53;;;3.43;;
7495;SDS011;3789;47.064;15.482;2023-03-29T14:34:16;4.50;;;3.40;;
7495;SDS011;3789;47.064;15.482;2023-03-29T14:36:56;5.23;;;3.77;;
7495;SDS011;3789;47.064;15.482;2023-03-29T14:39:28;5.67;;;3.87;;
7495;SDS011;3789;47.064;15.482;2023-03-29T14:42:09;6.90;;;3.30;;
7495;SDS011;3789;47.064;15.482;2023-03-29T14:44:46;3.27;;;2.90;;
7495;SDS011;3789;47.064;15.482;2023-03-29T14:47:25;4.23;;;3.53;;
7495;SDS011;3789;47.064;15.482;2023-03-29T14:49:59;5.37;;;3.90;;
7495;SDS011;3789;47.064;15.482;2023-03-29T14:52:27;3.87;;;2.87;;
7495;SDS011;3789;47.064;15.482;2023-03-29T14:55:08;4.50;;;3.53;;
7495;SDS011;3789;47.064;15.482;2023-03-29T14:57:37;4.27;;;3.53;;
7495;SDS011;3789;47.064;15.482;2023-03-29T15:00:22;5.60;;;3.60;;
7495;SDS011;3789;47.064;15.482;2023-03-29T15:02:59;5.17;;;3.40;;
7495;SDS011;3789;47.064;15.482;2023-03-29T15:05:36;3.73;;;3.10;;
7495;SDS011;3789;47.064;15.482;2023-03-29T15:08:13;4.47;;;3.57;;
7495;SDS011;3789;47.064;15.482;2023-03-29T15:10:47;5.67;;;3.90;;
7495;SDS011;3789;47.064;15.482;2023-03-29T15:13:18;5.20;;;3.50;;
7495;SDS011;3789;47.064;15.482;2023-03-29T15:16:00;5.53;;;3.67;;
7495;SDS011;3789;47.064;15.482;2023-03-29T15:18:34;4.93;;;3.57;;
7495;SDS011;3789;47.064;15.482;2023-03-29T15:21:09;4.43;;;3.50;;
7495;SDS011;3789;47.064;15.482;2023-03-29T15:23:55;5.40;;;3.70;;
7495;SDS011;3789;47.064;15.482;2023-03-29T15:26:31;5.80;;;3.93;;
7495;SDS011;3789;47.064;15.482;2023-03-29T15:29:15;5.47;;;4.30;;
7495;SDS011;3789;47.064;15.482;2023-03-29T15:31:53;5.37;;;4.07;;
7495;SDS011;3789;47.064;15.482;2023-03-29T15:34:24;4.70;;;4.20;;
7495;SDS011;3789;47.064;15.482;2023-03-29T15:37:00;5.00;;;4.03;;
7495;SDS011;3789;47.064;15.482;2023-03-29T15:39:31;4.40;;;3.33;;
7495;SDS011;3789;47.064;15.482;2023-03-29T15:42:04;5.90;;;3.93;;
7495;SDS011;3789;47.064;15.482;2023-03-29T15:44:33;5.70;;;3.97;;
7495;SDS011;3789;47.064;15.482;2023-03-29T15:47:11;5.60;;;4.03;;
7495;SDS011;3789;47.064;15.482;2023-03-29T15:49:41;4.70;;;3.80;;
7495;SDS011;3789;47.064;15.482;2023-03-29T15:52:17;5.57;;;3.87;;
7495;SDS011;3789;47.064;15.482;2023-03-29T15:54:44;4.90;;;4.10;;
7495;SDS011;3789;47.064;15.482;2023-03-29T15:57:14;8.60;;;3.63;;
7495;SDS011;3789;47.064;15.482;2023-03-29T15:59:44;4.23;;;3.83;;
7495;SDS011;3789;47.064;15.482;2023-03-29T16:02:14;5.67;;;4.03;;
7495;SDS011;3789;47.064;15.482;2023-03-29T16:04:50;6.00;;;3.70;;
7495;SDS011;3789;47.064;15.482;2023-03-29T16:07:19;4.73;;;3.73;;
7495;SDS011;3789;47.064;15.482;2023-03-29T16:09:52;4.30;;;3.83;;
7495;SDS011;3789;47.064;15.482;2023-03-29T16:12:24;5.80;;;4.53;;
7495;SDS011;3789;47.064;15.482;2023-03-29T16:14:59;9.00;;;3.90;;
7495;SDS011;3789;47.064;15.482;2023-03-29T16:17:28;7.67;;;4.33;;
7495;SDS011;3789;47.064;15.482;2023-03-29T16:19:58;5.23;;;3.97;;
7495;SDS011;3789;47.064;15.482;2023-03-29T16:22:28;5.50;;;3.90;;
7495;SDS011;3789;47.064;15.482;2023-03-29T16:25:02;8.73;;;4.07;;
7495;SDS011;3789;47.064;15.482;2023-03-29T16:27:39;4.67;;;3.93;;
7495;SDS011;3789;47.064;15.482;2023-03-29T16:30:12;5.00;;;4.23;;
7495;SDS011;3789;47.064;15.482;2023-03-29T16:32:43;6.87;;;4.60;;
7495;SDS011;3789;47.064;15.482;2023-03-29T16:35:24;7.70;;;5.93;;
7495;SDS011;3789;47.064;15.482;2023-03-29T16:38:10;7.13;;;5.67;;
7495;SDS011;3789;47.064;15.482;2023-03-29T16:40:38;7.00;;;6.30;;
7495;SDS011;3789;47.064;15.482;2023-03-29T16:43:11;6.80;;;5.87;;
7495;SDS011;3789;47.064;15.482;2023-03-29T16:45:42;5.57;;;4.70;;
7495;SDS011;3789;47.064;15.482;2023-03-29T16:48:19;7.03;;;4.57;;
7495;SDS011;3789;47.064;15.482;2023-03-29T16:50:48;5.20;;;4.43;;
7495;SDS011;3789;47.064;15.482;2023-03-29T16:53:20;7.17;;;4.40;;
7495;SDS011;3789;47.064;15.482;2023-03-29T16:55:51;6.27;;;4.10;;
7495;SDS011;3789;47.064;15.482;2023-03-29T16:58:20;5.47;;;4.13;;
7495;SDS011;3789;47.064;15.482;2023-03-29T17:00:49;5.60;;;4.37;;
7495;SDS011;3789;47.064;15.482;2023-03-29T17:03:19;6.47;;;4.97;;
7495;SDS011;3789;47.064;15.482;2023-03-29T17:05:51;5.03;;;4.20;;
7495;SDS011;3789;47.064;15.482;2023-03-29T17:08:21;4.73;;;3.90;;
7495;SDS011;3789;47.064;15.482;2023-03-29T17:10:52;5.90;;;4.70;;
7495;SDS011;3789;47.064;15.482;2023-03-29T17:13:22;6.50;;;4.97;;
7495;SDS011;3789;47.064;15.482;2023-03-29T17:15:57;5.03;;;4.53;;
7495;SDS011;3789;47.064;15.482;2023-03-29T17:18:29;5.70;;;4.97;;
7495;SDS011;3789;47.064;15.482;2023-03-29T17:20:57;5.77;;;4.83;;
7495;SDS011;3789;47.064;15.482;2023-03-29T17:23:25;4.87;;;4.47;;
7495;SDS011;3789;47.064;15.482;2023-03-29T17:25:53;5.80;;;4.37;;
7495;SDS011;3789;47.064;15.482;2023-03-29T17:28:25;5.50;;;4.90;;
7495;SDS011;3789;47.064;15.482;2023-03-29T17:30:55;6.63;;;5.17;;
7495;SDS011;3789;47.064;15.482;2023-03-29T17:33:27;9.00;;;4.50;;
7495;SDS011;3789;47.064;15.482;2023-03-29T17:35:58;4.50;;;4.10;;
7495;SDS011;3789;47.064;15.482;2023-03-29T17:38:26;6.23;;;4.57;;
7495;SDS011;3789;47.064;15.482;2023-03-29T17:40:56;5.53;;;4.73;;
7495;SDS011;3789;47.064;15.482;2023-03-29T17:43:24;6.00;;;4.70;;
7495;SDS011;3789;47.064;15.482;2023-03-29T17:45:52;6.03;;;4.50;;
7495;SDS011;3789;47.064;15.482;2023-03-29T17:48:20;8.53;;;5.70;;
7495;SDS011;3789;47.064;15.482;2023-03-29T17:50:50;6.20;;;5.13;;
7495;SDS011;3789;47.064;15.482;2023-03-29T17:53:22;6.20;;;5.40;;
7495;SDS011;3789;47.064;15.482;2023-03-29T17:55:54;7.37;;;5.10;;
7495;SDS011;3789;47.064;15.482;2023-03-29T17:58:25;8.47;;;5.73;;
7495;SDS011;3789;47.064;15.482;2023-03-29T18:00:58;5.40;;;4.47;;
7495;SDS011;3789;47.064;15.482;2023-03-29T18:03:29;11.10;;;5.90;;
7495;SDS011;3789;47.064;15.482;2023-03-29T18:05:58;6.13;;;5.40;;
7495;SDS011;3789;47.064;15.482;2023-03-29T18:08:29;7.03;;;5.70;;